sensor_id;sensor_type;location;lat;lon;timestamp;temperature;humidity
22008;DHT22;11168;56.976;24.168;2023-06-10T00:02:07;11.80;46.50
22008;DHT22;11168;56.976;24.168;2023-06-10T00:04:35;11.80;45.80
22008;DHT22;11168;56.976;24.168;2023-06-10T00:07:04;11.70;45.90
22008;DHT22;11168;56.976;24.168;2023-06-10T00:09:36;11.70;46.50
22008;DHT22;11168;56.976;24.168;2023-06-10T00:12:07;11.70;46.00
22008;DHT22;11168;56.976;24.168;2023-06-10T00:14:39;11.70;46.40
22008;DHT22;11168;56.976;24.168;2023-06-10T00:17:07;11.70;47.00
22008;DHT22;11168;56.976;24.168;2023-06-10T00:19:36;11.60;47.10
22008;DHT22;11168;56.976;24.168;2023-06-10T00:22:05;11.60;46.80
22008;DHT22;11168;56.976;24.168;2023-06-10T00:24:32;11.50;47.00
22008;DHT22;11168;56.976;24.168;2023-06-10T00:26:59;11.50;47.70
22008;DHT22;11168;56.976;24.168;2023-06-10T00:29:26;11.50;48.10
22008;DHT22;11168;56.976;24.168;2023-06-10T00:31:53;11.50;47.40
22008;DHT22;11168;56.976;24.168;2023-06-10T00:34:24;11.40;48.40
22008;DHT22;11168;56.976;24.168;2023-06-10T00:36:51;11.40;48.50
22008;DHT22;11168;56.976;24.168;2023-06-10T00:39:18;11.30;48.90
22008;DHT22;11168;56.976;24.168;2023-06-10T00:41:45;11.40;49.80
22008;DHT22;11168;56.976;24.168;2023-06-10T00:44:12;11.30;49.90
22008;DHT22;11168;56.976;24.168;2023-06-10T00:46:39;11.30;50.90
22008;DHT22;11168;56.976;24.168;2023-06-10T00:49:07;11.20;51.60
22008;DHT22;11168;56.976;24.168;2023-06-10T00:51:35;11.30;52.70
22008;DHT22;11168;56.976;24.168;2023-06-10T00:54:03;11.20;53.40
22008;DHT22;11168;56.976;24.168;2023-06-10T00:56:31;11.20;54.70
22008;DHT22;11168;56.976;24.168;2023-06-10T00:58:59;11.10;56.00
22008;DHT22;11168;56.976;24.168;2023-06-10T01:01:26;11.10;56.90
22008;DHT22;11168;56.976;24.168;2023-06-10T01:03:53;11.00;57.40
22008;DHT22;11168;56.976;24.168;2023-06-10T01:07:14;11.00;58.30
22008;DHT22;11168;56.976;24.168;2023-06-10T01:12:45;10.90;59.80
22008;DHT22;11168;56.976;24.168;2023-06-10T01:15:16;10.80;59.80
22008;DHT22;11168;56.976;24.168;2023-06-10T01:18:04;10.70;61.20
22008;DHT22;11168;56.976;24.168;2023-06-10T01:20:32;10.70;61.60
22008;DHT22;11168;56.976;24.168;2023-06-10T01:23:00;10.60;61.80
22008;DHT22;11168;56.976;24.168;2023-06-10T01:25:30;10.50;61.90
22008;DHT22;11168;56.976;24.168;2023-06-10T01:33:37;10.30;62.40
22008;DHT22;11168;56.976;24.168;2023-06-10T01:36:06;10.20;63.00
22008;DHT22;11168;56.976;24.168;2023-06-10T01:38:40;10.20;63.80
22008;DHT22;11168;56.976;24.168;2023-06-10T01:41:10;10.10;64.10
22008;DHT22;11168;56.976;24.168;2023-06-10T01:43:39;10.10;64.50
22008;DHT22;11168;56.976;24.168;2023-06-10T01:46:06;10.00;65.20
22008;DHT22;11168;56.976;24.168;2023-06-10T01:48:33;10.00;65.70
22008;DHT22;11168;56.976;24.168;2023-06-10T01:51:01;10.00;66.20
22008;DHT22;11168;56.976;24.168;2023-06-10T01:53:28;9.90;66.60
22008;DHT22;11168;56.976;24.168;2023-06-10T01:55:55;10.00;67.00
22008;DHT22;11168;56.976;24.168;2023-06-10T01:58:22;9.90;67.40
22008;DHT22;11168;56.976;24.168;2023-06-10T02:00:49;10.00;67.70
22008;DHT22;11168;56.976;24.168;2023-06-10T02:03:16;10.00;68.20
22008;DHT22;11168;56.976;24.168;2023-06-10T02:05:44;9.90;68.60
22008;DHT22;11168;56.976;24.168;2023-06-10T02:08:11;9.90;69.20
22008;DHT22;11168;56.976;24.168;2023-06-10T02:10:37;9.90;69.30
22008;DHT22;11168;56.976;24.168;2023-06-10T02:13:04;9.90;69.60
22008;DHT22;11168;56.976;24.168;2023-06-10T02:15:32;9.90;69.90
22008;DHT22;11168;56.976;24.168;2023-06-10T02:17:59;9.90;70.80
22008;DHT22;11168;56.976;24.168;2023-06-10T02:20:27;9.90;71.10
22008;DHT22;11168;56.976;24.168;2023-06-10T02:22:54;9.80;71.90
22008;DHT22;11168;56.976;24.168;2023-06-10T02:25:21;9.80;72.70
22008;DHT22;11168;56.976;24.168;2023-06-10T02:27:48;9.90;73.30
22008;DHT22;11168;56.976;24.168;2023-06-10T02:30:15;9.80;73.70
22008;DHT22;11168;56.976;24.168;2023-06-10T02:32:42;9.90;74.30
22008;DHT22;11168;56.976;24.168;2023-06-10T02:35:09;9.80;75.00
22008;DHT22;11168;56.976;24.168;2023-06-10T02:37:39;9.80;75.50
22008;DHT22;11168;56.976;24.168;2023-06-10T02:42:35;9.80;75.00
22008;DHT22;11168;56.976;24.168;2023-06-10T02:45:02;9.80;75.80
22008;DHT22;11168;56.976;24.168;2023-06-10T02:47:30;9.80;75.80
22008;DHT22;11168;56.976;24.168;2023-06-10T02:49:57;9.90;74.90
22008;DHT22;11168;56.976;24.168;2023-06-10T02:52:24;9.90;74.50
22008;DHT22;11168;56.976;24.168;2023-06-10T02:54:51;9.90;74.00
22008;DHT22;11168;56.976;24.168;2023-06-10T02:57:18;9.90;73.40
22008;DHT22;11168;56.976;24.168;2023-06-10T02:59:45;9.90;73.00
22008;DHT22;11168;56.976;24.168;2023-06-10T03:02:13;9.90;72.40
22008;DHT22;11168;56.976;24.168;2023-06-10T03:04:40;9.90;72.00
22008;DHT22;11168;56.976;24.168;2023-06-10T03:07:07;9.90;72.10
22008;DHT22;11168;56.976;24.168;2023-06-10T03:09:35;9.90;72.40
22008;DHT22;11168;56.976;24.168;2023-06-10T03:12:02;9.90;72.10
22008;DHT22;11168;56.976;24.168;2023-06-10T03:14:29;9.90;72.10
22008;DHT22;11168;56.976;24.168;2023-06-10T03:16:56;9.90;72.00
22008;DHT22;11168;56.976;24.168;2023-06-10T03:19:23;10.00;71.80
22008;DHT22;11168;56.976;24.168;2023-06-10T03:21:57;10.10;72.00
22008;DHT22;11168;56.976;24.168;2023-06-10T03:24:33;10.10;71.60
22008;DHT22;11168;56.976;24.168;2023-06-10T03:27:00;10.10;71.30
22008;DHT22;11168;56.976;24.168;2023-06-10T03:29:27;10.20;70.90
22008;DHT22;11168;56.976;24.168;2023-06-10T03:31:54;10.30;70.90
22008;DHT22;11168;56.976;24.168;2023-06-10T03:34:21;10.30;70.60
22008;DHT22;11168;56.976;24.168;2023-06-10T03:36:50;10.50;70.40
22008;DHT22;11168;56.976;24.168;2023-06-10T03:39:17;10.50;70.00
22008;DHT22;11168;56.976;24.168;2023-06-10T03:41:44;10.50;69.80
22008;DHT22;11168;56.976;24.168;2023-06-10T03:44:11;10.60;69.70
22008;DHT22;11168;56.976;24.168;2023-06-10T03:46:38;10.60;69.50
22008;DHT22;11168;56.976;24.168;2023-06-10T03:49:05;10.60;69.50
22008;DHT22;11168;56.976;24.168;2023-06-10T03:51:32;10.70;69.60
22008;DHT22;11168;56.976;24.168;2023-06-10T03:53:59;10.70;69.20
22008;DHT22;11168;56.976;24.168;2023-06-10T03:56:26;10.80;69.30
22008;DHT22;11168;56.976;24.168;2023-06-10T03:58:53;10.90;68.30
22008;DHT22;11168;56.976;24.168;2023-06-10T04:01:20;11.00;68.30
22008;DHT22;11168;56.976;24.168;2023-06-10T04:03:47;11.10;68.50
22008;DHT22;11168;56.976;24.168;2023-06-10T04:06:15;11.10;67.40
22008;DHT22;11168;56.976;24.168;2023-06-10T04:08:42;11.30;67.70
22008;DHT22;11168;56.976;24.168;2023-06-10T04:11:09;11.40;67.40
22008;DHT22;11168;56.976;24.168;2023-06-10T04:13:36;11.50;67.10
22008;DHT22;11168;56.976;24.168;2023-06-10T04:16:05;11.60;66.80
22008;DHT22;11168;56.976;24.168;2023-06-10T04:18:32;11.70;66.50
22008;DHT22;11168;56.976;24.168;2023-06-10T04:20:59;11.70;65.60
22008;DHT22;11168;56.976;24.168;2023-06-10T04:23:26;11.70;64.90
22008;DHT22;11168;56.976;24.168;2023-06-10T04:25:53;11.80;65.20
22008;DHT22;11168;56.976;24.168;2023-06-10T04:28:20;11.90;64.80
22008;DHT22;11168;56.976;24.168;2023-06-10T04:30:48;12.00;63.80
22008;DHT22;11168;56.976;24.168;2023-06-10T04:33:16;12.00;64.40
22008;DHT22;11168;56.976;24.168;2023-06-10T04:35:44;12.10;64.10
22008;DHT22;11168;56.976;24.168;2023-06-10T04:38:11;12.10;63.80
22008;DHT22;11168;56.976;24.168;2023-06-10T04:40:39;12.20;63.40
22008;DHT22;11168;56.976;24.168;2023-06-10T04:43:07;12.30;63.00
22008;DHT22;11168;56.976;24.168;2023-06-10T04:45:34;12.30;62.70
22008;DHT22;11168;56.976;24.168;2023-06-10T04:48:01;12.50;62.60
22008;DHT22;11168;56.976;24.168;2023-06-10T04:50:28;12.50;62.20
22008;DHT22;11168;56.976;24.168;2023-06-10T04:52:57;12.60;62.80
22008;DHT22;11168;56.976;24.168;2023-06-10T04:55:24;12.70;61.20
22008;DHT22;11168;56.976;24.168;2023-06-10T04:57:51;12.70;60.50
22008;DHT22;11168;56.976;24.168;2023-06-10T05:00:20;12.80;60.60
22008;DHT22;11168;56.976;24.168;2023-06-10T05:02:50;12.90;60.60
22008;DHT22;11168;56.976;24.168;2023-06-10T05:05:19;13.00;59.50
22008;DHT22;11168;56.976;24.168;2023-06-10T05:07:46;13.10;58.50
22008;DHT22;11168;56.976;24.168;2023-06-10T05:10:14;13.10;58.90
22008;DHT22;11168;56.976;24.168;2023-06-10T05:12:41;13.20;58.50
22008;DHT22;11168;56.976;24.168;2023-06-10T05:15:09;13.20;57.80
22008;DHT22;11168;56.976;24.168;2023-06-10T05:17:36;13.30;57.70
22008;DHT22;11168;56.976;24.168;2023-06-10T05:20:04;13.40;57.10
22008;DHT22;11168;56.976;24.168;2023-06-10T05:22:32;13.60;57.10
22008;DHT22;11168;56.976;24.168;2023-06-10T05:24:58;13.60;56.50
22008;DHT22;11168;56.976;24.168;2023-06-10T05:27:27;13.60;55.60
22008;DHT22;11168;56.976;24.168;2023-06-10T05:29:54;13.60;55.40
22008;DHT22;11168;56.976;24.168;2023-06-10T05:32:22;13.70;55.40
22008;DHT22;11168;56.976;24.168;2023-06-10T05:34:49;13.70;55.70
22008;DHT22;11168;56.976;24.168;2023-06-10T05:37:16;13.90;55.80
22008;DHT22;11168;56.976;24.168;2023-06-10T05:39:43;14.10;54.90
22008;DHT22;11168;56.976;24.168;2023-06-10T05:42:10;14.10;54.50
22008;DHT22;11168;56.976;24.168;2023-06-10T05:44:37;14.10;53.70
22008;DHT22;11168;56.976;24.168;2023-06-10T05:47:05;14.20;53.50
22008;DHT22;11168;56.976;24.168;2023-06-10T05:49:34;14.20;53.50
22008;DHT22;11168;56.976;24.168;2023-06-10T05:52:02;14.20;53.20
22008;DHT22;11168;56.976;24.168;2023-06-10T05:54:29;14.20;53.80
22008;DHT22;11168;56.976;24.168;2023-06-10T05:56:56;14.40;53.00
22008;DHT22;11168;56.976;24.168;2023-06-10T05:59:23;14.40;52.10
22008;DHT22;11168;56.976;24.168;2023-06-10T06:01:50;14.50;52.50
22008;DHT22;11168;56.976;24.168;2023-06-10T06:04:17;14.70;52.10
22008;DHT22;11168;56.976;24.168;2023-06-10T06:06:44;14.80;50.70
22008;DHT22;11168;56.976;24.168;2023-06-10T06:09:12;14.80;50.50
22008;DHT22;11168;56.976;24.168;2023-06-10T06:11:40;14.80;49.80
22008;DHT22;11168;56.976;24.168;2023-06-10T06:14:07;14.80;49.90
22008;DHT22;11168;56.976;24.168;2023-06-10T06:16:34;14.90;49.30
22008;DHT22;11168;56.976;24.168;2023-06-10T06:19:04;14.90;48.90
22008;DHT22;11168;56.976;24.168;2023-06-10T06:21:32;15.00;48.20
22008;DHT22;11168;56.976;24.168;2023-06-10T06:23:59;15.10;48.30
22008;DHT22;11168;56.976;24.168;2023-06-10T06:26:26;15.30;48.00
22008;DHT22;11168;56.976;24.168;2023-06-10T06:28:53;15.40;47.20
22008;DHT22;11168;56.976;24.168;2023-06-10T06:31:20;15.50;47.50
22008;DHT22;11168;56.976;24.168;2023-06-10T06:33:48;15.80;47.40
22008;DHT22;11168;56.976;24.168;2023-06-10T06:36:15;15.80;45.20
22008;DHT22;11168;56.976;24.168;2023-06-10T06:38:42;15.80;44.40
22008;DHT22;11168;56.976;24.168;2023-06-10T06:41:09;15.90;43.70
22008;DHT22;11168;56.976;24.168;2023-06-10T06:43:37;16.00;42.80
22008;DHT22;11168;56.976;24.168;2023-06-10T06:46:09;16.00;42.50
22008;DHT22;11168;56.976;24.168;2023-06-10T06:48:37;16.10;42.00
22008;DHT22;11168;56.976;24.168;2023-06-10T06:51:04;16.30;41.60
22008;DHT22;11168;56.976;24.168;2023-06-10T06:53:32;16.60;41.00
22008;DHT22;11168;56.976;24.168;2023-06-10T06:56:00;17.40;40.70
22008;DHT22;11168;56.976;24.168;2023-06-10T06:58:30;18.10;38.00
22008;DHT22;11168;56.976;24.168;2023-06-10T07:00:59;19.20;36.50
22008;DHT22;11168;56.976;24.168;2023-06-10T07:03:27;19.80;35.00
22008;DHT22;11168;56.976;24.168;2023-06-10T07:05:55;19.60;32.90
22008;DHT22;11168;56.976;24.168;2023-06-10T07:08:22;19.40;33.70
22008;DHT22;11168;56.976;24.168;2023-06-10T07:10:49;19.20;32.60
22008;DHT22;11168;56.976;24.168;2023-06-10T07:13:17;19.40;32.40
22008;DHT22;11168;56.976;24.168;2023-06-10T07:15:46;19.80;31.90
22008;DHT22;11168;56.976;24.168;2023-06-10T07:18:15;19.90;31.10
22008;DHT22;11168;56.976;24.168;2023-06-10T07:20:44;20.20;30.60
22008;DHT22;11168;56.976;24.168;2023-06-10T07:23:12;20.60;30.30
22008;DHT22;11168;56.976;24.168;2023-06-10T07:25:40;21.00;29.40
22008;DHT22;11168;56.976;24.168;2023-06-10T07:28:07;20.50;28.70
22008;DHT22;11168;56.976;24.168;2023-06-10T07:30:35;19.80;28.80
22008;DHT22;11168;56.976;24.168;2023-06-10T07:33:02;19.60;29.20
22008;DHT22;11168;56.976;24.168;2023-06-10T07:35:32;19.90;28.70
22008;DHT22;11168;56.976;24.168;2023-06-10T07:37:59;20.40;27.90
22008;DHT22;11168;56.976;24.168;2023-06-10T07:40:26;21.20;27.80
22008;DHT22;11168;56.976;24.168;2023-06-10T07:42:53;22.00;27.00
22008;DHT22;11168;56.976;24.168;2023-06-10T07:45:20;21.70;25.60
22008;DHT22;11168;56.976;24.168;2023-06-10T07:47:47;21.80;25.70
22008;DHT22;11168;56.976;24.168;2023-06-10T07:50:14;22.40;24.60
22008;DHT22;11168;56.976;24.168;2023-06-10T07:52:41;23.20;24.10
22008;DHT22;11168;56.976;24.168;2023-06-10T07:55:08;22.90;23.80
22008;DHT22;11168;56.976;24.168;2023-06-10T07:57:36;22.90;23.30
22008;DHT22;11168;56.976;24.168;2023-06-10T08:00:06;22.40;24.20
22008;DHT22;11168;56.976;24.168;2023-06-10T08:02:33;22.90;24.10
22008;DHT22;11168;56.976;24.168;2023-06-10T08:05:00;22.90;24.30
22008;DHT22;11168;56.976;24.168;2023-06-10T08:07:27;23.20;23.40
22008;DHT22;11168;56.976;24.168;2023-06-10T08:09:54;23.90;23.00
22008;DHT22;11168;56.976;24.168;2023-06-10T08:12:21;23.50;22.90
22008;DHT22;11168;56.976;24.168;2023-06-10T08:14:48;22.70;23.70
22008;DHT22;11168;56.976;24.168;2023-06-10T08:17:15;24.00;23.10
22008;DHT22;11168;56.976;24.168;2023-06-10T08:19:42;23.70;23.40
22008;DHT22;11168;56.976;24.168;2023-06-10T08:22:09;22.80;24.70
22008;DHT22;11168;56.976;24.168;2023-06-10T08:24:37;22.80;25.80
22008;DHT22;11168;56.976;24.168;2023-06-10T08:27:04;23.10;24.80
22008;DHT22;11168;56.976;24.168;2023-06-10T08:29:32;21.80;24.60
22008;DHT22;11168;56.976;24.168;2023-06-10T08:32:00;22.20;25.20
22008;DHT22;11168;56.976;24.168;2023-06-10T08:34:27;22.20;25.50
22008;DHT22;11168;56.976;24.168;2023-06-10T08:36:54;22.70;25.60
22008;DHT22;11168;56.976;24.168;2023-06-10T08:39:22;22.80;25.50
22008;DHT22;11168;56.976;24.168;2023-06-10T08:42:26;23.00;24.20
22008;DHT22;11168;56.976;24.168;2023-06-10T08:44:55;22.50;23.10
22008;DHT22;11168;56.976;24.168;2023-06-10T08:47:24;23.30;23.40
22008;DHT22;11168;56.976;24.168;2023-06-10T08:49:52;23.70;21.40
22008;DHT22;11168;56.976;24.168;2023-06-10T08:52:21;23.60;20.90
22008;DHT22;11168;56.976;24.168;2023-06-10T08:54:58;23.70;20.30
22008;DHT22;11168;56.976;24.168;2023-06-10T08:57:27;23.40;20.50
22008;DHT22;11168;56.976;24.168;2023-06-10T08:59:55;23.50;20.80
22008;DHT22;11168;56.976;24.168;2023-06-10T09:02:24;23.20;21.40
22008;DHT22;11168;56.976;24.168;2023-06-10T09:04:51;24.70;19.70
22008;DHT22;11168;56.976;24.168;2023-06-10T09:07:19;24.70;19.60
22008;DHT22;11168;56.976;24.168;2023-06-10T09:09:46;23.80;19.30
22008;DHT22;11168;56.976;24.168;2023-06-10T09:12:14;24.70;18.90
22008;DHT22;11168;56.976;24.168;2023-06-10T09:14:42;24.30;19.70
22008;DHT22;11168;56.976;24.168;2023-06-10T09:17:10;23.00;20.70
22008;DHT22;11168;56.976;24.168;2023-06-10T09:19:38;23.10;20.70
22008;DHT22;11168;56.976;24.168;2023-06-10T09:22:05;22.70;20.90
22008;DHT22;11168;56.976;24.168;2023-06-10T09:24:32;23.00;20.90
22008;DHT22;11168;56.976;24.168;2023-06-10T09:27:04;23.30;21.10
22008;DHT22;11168;56.976;24.168;2023-06-10T09:29:53;23.30;20.40
22008;DHT22;11168;56.976;24.168;2023-06-10T09:32:20;22.60;20.90
22008;DHT22;11168;56.976;24.168;2023-06-10T09:34:48;23.30;21.00
22008;DHT22;11168;56.976;24.168;2023-06-10T09:37:23;22.70;20.20
22008;DHT22;11168;56.976;24.168;2023-06-10T09:40:07;22.80;20.20
22008;DHT22;11168;56.976;24.168;2023-06-10T09:42:37;21.50;20.30
22008;DHT22;11168;56.976;24.168;2023-06-10T09:45:06;22.20;20.10
22008;DHT22;11168;56.976;24.168;2023-06-10T09:47:34;21.60;19.00
22008;DHT22;11168;56.976;24.168;2023-06-10T09:50:01;21.10;20.00
22008;DHT22;11168;56.976;24.168;2023-06-10T09:52:29;21.10;20.10
22008;DHT22;11168;56.976;24.168;2023-06-10T09:55:00;21.50;20.70
22008;DHT22;11168;56.976;24.168;2023-06-10T09:57:31;21.50;20.10
22008;DHT22;11168;56.976;24.168;2023-06-10T10:00:08;21.70;20.60
22008;DHT22;11168;56.976;24.168;2023-06-10T10:02:51;21.60;20.40
22008;DHT22;11168;56.976;24.168;2023-06-10T10:05:20;21.40;20.70
22008;DHT22;11168;56.976;24.168;2023-06-10T10:07:48;21.60;20.80
22008;DHT22;11168;56.976;24.168;2023-06-10T10:10:19;21.00;21.20
22008;DHT22;11168;56.976;24.168;2023-06-10T10:12:48;21.10;21.50
22008;DHT22;11168;56.976;24.168;2023-06-10T10:15:18;21.50;21.70
22008;DHT22;11168;56.976;24.168;2023-06-10T10:18:07;20.90;21.80
22008;DHT22;11168;56.976;24.168;2023-06-10T10:20:39;20.80;22.40
22008;DHT22;11168;56.976;24.168;2023-06-10T10:23:09;20.80;22.20
22008;DHT22;11168;56.976;24.168;2023-06-10T10:25:40;20.80;21.70
22008;DHT22;11168;56.976;24.168;2023-06-10T10:28:12;20.50;21.90
22008;DHT22;11168;56.976;24.168;2023-06-10T10:30:40;20.70;21.70
22008;DHT22;11168;56.976;24.168;2023-06-10T10:33:20;20.90;21.30
22008;DHT22;11168;56.976;24.168;2023-06-10T10:35:50;20.50;21.40
22008;DHT22;11168;56.976;24.168;2023-06-10T10:38:17;20.60;20.90
22008;DHT22;11168;56.976;24.168;2023-06-10T10:40:44;20.70;20.80
22008;DHT22;11168;56.976;24.168;2023-06-10T10:43:13;20.30;21.40
22008;DHT22;11168;56.976;24.168;2023-06-10T10:45:41;20.50;21.40
22008;DHT22;11168;56.976;24.168;2023-06-10T10:48:08;20.50;20.70
22008;DHT22;11168;56.976;24.168;2023-06-10T10:50:39;20.70;21.10
22008;DHT22;11168;56.976;24.168;2023-06-10T10:53:06;20.60;20.60
22008;DHT22;11168;56.976;24.168;2023-06-10T10:55:33;20.60;20.90
22008;DHT22;11168;56.976;24.168;2023-06-10T10:58:07;20.60;20.80
22008;DHT22;11168;56.976;24.168;2023-06-10T11:00:36;20.60;21.60
22008;DHT22;11168;56.976;24.168;2023-06-10T11:05:42;20.50;21.40
22008;DHT22;11168;56.976;24.168;2023-06-10T11:08:11;20.40;20.80
22008;DHT22;11168;56.976;24.168;2023-06-10T11:10:41;20.10;21.50
22008;DHT22;11168;56.976;24.168;2023-06-10T11:13:10;20.10;21.80
22008;DHT22;11168;56.976;24.168;2023-06-10T11:15:47;20.60;22.10
22008;DHT22;11168;56.976;24.168;2023-06-10T11:18:22;20.50;21.50
22008;DHT22;11168;56.976;24.168;2023-06-10T11:26:19;20.40;20.90
22008;DHT22;11168;56.976;24.168;2023-06-10T11:33:56;20.60;20.50
22008;DHT22;11168;56.976;24.168;2023-06-10T11:36:24;20.80;20.20
22008;DHT22;11168;56.976;24.168;2023-06-10T11:39:00;20.70;20.30
22008;DHT22;11168;56.976;24.168;2023-06-10T11:41:29;20.40;20.30
22008;DHT22;11168;56.976;24.168;2023-06-10T11:44:25;20.60;20.30
22008;DHT22;11168;56.976;24.168;2023-06-10T11:46:56;20.60;20.20
22008;DHT22;11168;56.976;24.168;2023-06-10T11:49:23;20.50;20.00
22008;DHT22;11168;56.976;24.168;2023-06-10T11:51:51;20.50;19.80
22008;DHT22;11168;56.976;24.168;2023-06-10T11:54:19;20.80;20.20
22008;DHT22;11168;56.976;24.168;2023-06-10T11:56:46;20.60;19.80
22008;DHT22;11168;56.976;24.168;2023-06-10T11:59:14;20.30;20.20
22008;DHT22;11168;56.976;24.168;2023-06-10T12:01:45;20.40;20.40
22008;DHT22;11168;56.976;24.168;2023-06-10T12:04:14;20.40;20.30
22008;DHT22;11168;56.976;24.168;2023-06-10T12:06:49;20.70;20.40
22008;DHT22;11168;56.976;24.168;2023-06-10T12:09:27;20.70;20.50
22008;DHT22;11168;56.976;24.168;2023-06-10T12:12:00;20.50;19.50
22008;DHT22;11168;56.976;24.168;2023-06-10T12:14:57;20.50;20.20
22008;DHT22;11168;56.976;24.168;2023-06-10T12:20:08;20.90;19.50
22008;DHT22;11168;56.976;24.168;2023-06-10T12:22:39;20.60;19.70
22008;DHT22;11168;56.976;24.168;2023-06-10T12:25:06;20.40;19.20
22008;DHT22;11168;56.976;24.168;2023-06-10T12:27:35;20.50;19.50
22008;DHT22;11168;56.976;24.168;2023-06-10T12:30:05;20.20;18.40
22008;DHT22;11168;56.976;24.168;2023-06-10T12:32:46;20.30;19.60
22008;DHT22;11168;56.976;24.168;2023-06-10T12:35:16;20.50;19.40
22008;DHT22;11168;56.976;24.168;2023-06-10T12:40:44;20.60;19.50
22008;DHT22;11168;56.976;24.168;2023-06-10T12:43:11;20.60;19.80
22008;DHT22;11168;56.976;24.168;2023-06-10T12:45:39;20.80;20.00
22008;DHT22;11168;56.976;24.168;2023-06-10T12:48:20;20.50;19.90
22008;DHT22;11168;56.976;24.168;2023-06-10T12:50:55;20.40;20.30
22008;DHT22;11168;56.976;24.168;2023-06-10T12:53:23;20.50;20.30
22008;DHT22;11168;56.976;24.168;2023-06-10T12:55:50;20.30;19.80
22008;DHT22;11168;56.976;24.168;2023-06-10T12:58:19;20.30;19.40
22008;DHT22;11168;56.976;24.168;2023-06-10T13:00:47;20.50;20.20
22008;DHT22;11168;56.976;24.168;2023-06-10T13:03:15;20.60;20.50
22008;DHT22;11168;56.976;24.168;2023-06-10T13:05:43;20.30;21.10
22008;DHT22;11168;56.976;24.168;2023-06-10T13:08:10;20.20;21.10
22008;DHT22;11168;56.976;24.168;2023-06-10T13:10:37;20.20;20.50
22008;DHT22;11168;56.976;24.168;2023-06-10T13:13:05;20.20;20.40
22008;DHT22;11168;56.976;24.168;2023-06-10T13:15:32;20.10;20.20
22008;DHT22;11168;56.976;24.168;2023-06-10T13:18:07;20.10;20.10
22008;DHT22;11168;56.976;24.168;2023-06-10T13:20:34;20.10;20.60
22008;DHT22;11168;56.976;24.168;2023-06-10T13:23:01;20.10;21.00
22008;DHT22;11168;56.976;24.168;2023-06-10T13:25:28;20.20;20.60
22008;DHT22;11168;56.976;24.168;2023-06-10T13:27:55;20.10;20.90
22008;DHT22;11168;56.976;24.168;2023-06-10T13:30:22;20.10;20.30
22008;DHT22;11168;56.976;24.168;2023-06-10T13:32:49;19.80;20.30
22008;DHT22;11168;56.976;24.168;2023-06-10T13:35:16;20.00;20.20
22008;DHT22;11168;56.976;24.168;2023-06-10T13:37:43;20.00;20.00
22008;DHT22;11168;56.976;24.168;2023-06-10T13:40:10;19.90;20.10
22008;DHT22;11168;56.976;24.168;2023-06-10T13:42:37;19.90;20.30
22008;DHT22;11168;56.976;24.168;2023-06-10T13:45:05;19.90;19.70
22008;DHT22;11168;56.976;24.168;2023-06-10T13:47:32;19.70;19.50
22008;DHT22;11168;56.976;24.168;2023-06-10T13:49:59;19.70;20.70
22008;DHT22;11168;56.976;24.168;2023-06-10T13:52:26;19.70;20.60
22008;DHT22;11168;56.976;24.168;2023-06-10T13:54:53;19.90;20.60
22008;DHT22;11168;56.976;24.168;2023-06-10T13:57:20;20.00;19.80
22008;DHT22;11168;56.976;24.168;2023-06-10T13:59:47;20.10;19.10
22008;DHT22;11168;56.976;24.168;2023-06-10T14:02:15;19.90;19.20
22008;DHT22;11168;56.976;24.168;2023-06-10T14:04:42;19.80;19.00
22008;DHT22;11168;56.976;24.168;2023-06-10T14:07:09;19.70;19.10
22008;DHT22;11168;56.976;24.168;2023-06-10T14:09:36;19.50;19.40
22008;DHT22;11168;56.976;24.168;2023-06-10T14:12:03;19.40;19.40
22008;DHT22;11168;56.976;24.168;2023-06-10T14:14:32;19.50;19.60
22008;DHT22;11168;56.976;24.168;2023-06-10T14:16:59;19.40;19.60
22008;DHT22;11168;56.976;24.168;2023-06-10T14:19:27;19.50;20.00
22008;DHT22;11168;56.976;24.168;2023-06-10T14:21:54;19.50;20.20
22008;DHT22;11168;56.976;24.168;2023-06-10T14:24:22;19.60;19.90
22008;DHT22;11168;56.976;24.168;2023-06-10T14:26:49;19.60;20.00
22008;DHT22;11168;56.976;24.168;2023-06-10T14:29:16;19.50;20.00
22008;DHT22;11168;56.976;24.168;2023-06-10T14:31:45;19.60;20.40
22008;DHT22;11168;56.976;24.168;2023-06-10T14:34:12;19.40;20.60
22008;DHT22;11168;56.976;24.168;2023-06-10T14:36:39;19.30;20.70
22008;DHT22;11168;56.976;24.168;2023-06-10T14:39:06;19.40;20.90
22008;DHT22;11168;56.976;24.168;2023-06-10T14:41:33;19.30;21.10
22008;DHT22;11168;56.976;24.168;2023-06-10T14:44:00;19.40;21.50
22008;DHT22;11168;56.976;24.168;2023-06-10T14:46:27;19.40;21.10
22008;DHT22;11168;56.976;24.168;2023-06-10T14:48:54;19.50;21.10
22008;DHT22;11168;56.976;24.168;2023-06-10T14:51:21;19.40;20.50
22008;DHT22;11168;56.976;24.168;2023-06-10T14:53:48;19.50;20.40
22008;DHT22;11168;56.976;24.168;2023-06-10T14:56:15;19.40;20.10
22008;DHT22;11168;56.976;24.168;2023-06-10T14:58:42;19.30;20.20
22008;DHT22;11168;56.976;24.168;2023-06-10T15:01:09;19.30;20.80
22008;DHT22;11168;56.976;24.168;2023-06-10T15:03:36;19.30;21.50
22008;DHT22;11168;56.976;24.168;2023-06-10T15:06:03;19.30;21.80
22008;DHT22;11168;56.976;24.168;2023-06-10T15:08:30;19.40;24.70
22008;DHT22;11168;56.976;24.168;2023-06-10T15:10:57;19.30;21.50
22008;DHT22;11168;56.976;24.168;2023-06-10T15:13:25;19.30;21.80
22008;DHT22;11168;56.976;24.168;2023-06-10T15:15:52;19.40;22.00
22008;DHT22;11168;56.976;24.168;2023-06-10T15:18:19;19.50;21.80
22008;DHT22;11168;56.976;24.168;2023-06-10T15:20:46;19.50;21.40
22008;DHT22;11168;56.976;24.168;2023-06-10T15:23:13;19.30;21.00
22008;DHT22;11168;56.976;24.168;2023-06-10T15:25:40;19.40;21.70
22008;DHT22;11168;56.976;24.168;2023-06-10T15:28:08;19.30;22.00
22008;DHT22;11168;56.976;24.168;2023-06-10T15:30:35;19.20;22.20
22008;DHT22;11168;56.976;24.168;2023-06-10T15:33:03;19.00;21.80
22008;DHT22;11168;56.976;24.168;2023-06-10T15:35:33;19.00;22.20
22008;DHT22;11168;56.976;24.168;2023-06-10T15:38:00;19.00;22.10
22008;DHT22;11168;56.976;24.168;2023-06-10T15:40:27;19.10;21.80
22008;DHT22;11168;56.976;24.168;2023-06-10T15:42:55;19.10;21.50
22008;DHT22;11168;56.976;24.168;2023-06-10T15:45:22;19.10;21.90
22008;DHT22;11168;56.976;24.168;2023-06-10T15:47:49;18.90;20.90
22008;DHT22;11168;56.976;24.168;2023-06-10T15:50:16;19.00;21.40
22008;DHT22;11168;56.976;24.168;2023-06-10T15:52:43;19.00;21.60
22008;DHT22;11168;56.976;24.168;2023-06-10T15:55:10;18.90;21.60
22008;DHT22;11168;56.976;24.168;2023-06-10T15:57:37;18.70;21.60